createdAt,value
2018-06-09T00:02:48.227Z,7.35
2018-06-09T00:07:52.940Z,8.83
2018-06-09T00:12:57.807Z,9.60
2018-06-09T00:18:03.421Z,8.88
2018-06-09T00:23:08.044Z,9.40
2018-06-09T00:28:12.914Z,9.43
2018-06-09T00:33:17.647Z,10.30
2018-06-09T00:38:23.316Z,9.40
2018-06-09T00:43:28.148Z,9.38
2018-06-09T00:48:34.194Z,9.50
2018-06-09T00:53:38.985Z,9.53
2018-06-09T00:58:44.410Z,9.98
2018-06-09T01:03:49.461Z,11.18
2018-06-09T01:08:54.315Z,10.30
2018-06-09T01:13:59.334Z,10.80
2018-06-09T01:19:04.199Z,9.73
2018-06-09T01:24:09.005Z,9.68
2018-06-09T01:29:13.770Z,8.95
2018-06-09T01:34:18.714Z,8.30
2018-06-09T01:39:23.521Z,8.23
2018-06-09T01:44:28.230Z,7.15
2018-06-09T01:49:33.334Z,6.90
2018-06-09T01:54:38.155Z,7.33
2018-06-09T01:59:42.981Z,7.28
2018-06-09T02:04:47.800Z,6.90
2018-06-09T02:09:52.558Z,7.87
2018-06-09T02:14:57.209Z,8.33
2018-06-09T02:20:01.948Z,8.20
2018-06-09T02:25:06.657Z,8.35
2018-06-09T02:30:11.376Z,7.53
2018-06-09T02:35:16.061Z,8.18
2018-06-09T02:40:20.770Z,7.62
2018-06-09T02:45:25.613Z,8.20
2018-06-09T02:50:30.475Z,8.20
2018-06-09T02:55:35.175Z,7.75
2018-06-09T03:00:40.034Z,7.35
2018-06-09T03:05:44.896Z,8.60
2018-06-09T03:10:49.903Z,8.65
2018-06-09T03:15:54.642Z,9.18
2018-06-09T03:20:59.365Z,8.43
2018-06-09T03:26:04.078Z,9.48
2018-06-09T03:31:09.052Z,9.23
2018-06-09T03:36:14.743Z,8.75
2018-06-09T03:41:19.539Z,8.73
2018-06-09T03:46:24.792Z,8.43
2018-06-09T03:51:29.761Z,8.50
2018-06-09T03:56:34.719Z,9.05
2018-06-09T04:01:39.432Z,10.32
2018-06-09T04:06:44.146Z,9.45
2018-06-09T04:11:48.896Z,9.90
2018-06-09T04:16:53.517Z,9.55
2018-06-09T04:21:58.114Z,9.68
2018-06-09T04:27:02.903Z,8.55
2018-06-09T04:32:07.735Z,9.85
2018-06-09T04:37:12.813Z,9.95
2018-06-09T04:42:17.638Z,9.13
2018-06-09T04:47:22.108Z,9.95
2018-06-09T04:52:26.784Z,9.75
2018-06-09T04:57:31.772Z,10.15
2018-06-09T05:02:37.846Z,10.63
2018-06-09T05:07:44.562Z,10.13
2018-06-09T05:12:49.432Z,10.63
2018-06-09T05:17:54.085Z,11.35
2018-06-09T05:22:58.890Z,11.97
2018-06-09T05:28:03.668Z,11.80
2018-06-09T05:33:08.450Z,12.35
2018-06-09T05:38:13.277Z,12.88
2018-06-09T05:43:18.277Z,13.10
2018-06-09T05:48:23.117Z,11.78
2018-06-09T05:53:27.725Z,9.33
2018-06-09T05:58:32.376Z,9.50
2018-06-09T06:03:36.647Z,8.75
2018-06-09T06:08:41.561Z,8.73
2018-06-09T06:13:46.267Z,9.50
2018-06-09T06:18:50.986Z,8.50
2018-06-09T06:23:55.757Z,7.83
2018-06-09T06:29:00.458Z,8.45
2018-06-09T06:34:06.018Z,8.33
2018-06-09T06:39:10.873Z,8.03
2018-06-09T06:44:15.610Z,7.42
2018-06-09T06:49:20.364Z,6.95
2018-06-09T06:54:25.308Z,8.05
2018-06-09T06:59:30.439Z,6.55
2018-06-09T07:04:35.224Z,6.25
2018-06-09T07:09:40.001Z,6.45
2018-06-09T07:14:45.052Z,7.17
2018-06-09T07:19:50.012Z,6.37
2018-06-09T07:24:55.088Z,5.92
2018-06-09T07:29:59.984Z,5.78
2018-06-09T07:35:04.721Z,6.40
2018-06-09T07:40:09.576Z,5.47
2018-06-09T07:45:14.506Z,5.33
2018-06-09T07:50:19.107Z,6.08
2018-06-09T07:55:24.277Z,5.42
2018-06-09T08:00:29.096Z,5.67
2018-06-09T08:05:33.940Z,6.08
2018-06-09T08:10:38.581Z,6.25
2018-06-09T08:15:43.215Z,5.40
2018-06-09T08:20:48.140Z,4.92
2018-06-09T08:25:54.024Z,5.00
2018-06-09T08:30:58.869Z,6.37
2018-06-09T08:36:03.868Z,4.72
2018-06-09T08:41:08.770Z,4.83
2018-06-09T08:46:13.882Z,4.22
2018-06-09T08:51:18.655Z,4.70
2018-06-09T08:56:24.051Z,4.28
2018-06-09T09:01:28.801Z,4.03
2018-06-09T09:06:33.431Z,4.65
2018-06-09T09:11:38.305Z,4.85
2018-06-09T09:16:43.133Z,4.62
2018-06-09T09:21:48.575Z,4.70
2018-06-09T09:26:53.431Z,4.72
2018-06-09T09:31:58.281Z,3.95
2018-06-09T09:37:04.104Z,4.20
2018-06-09T09:42:08.716Z,4.78
2018-06-09T09:47:13.485Z,5.15
2018-06-09T09:52:18.501Z,5.53
2018-06-09T09:57:23.256Z,5.62
2018-06-09T10:02:28.097Z,5.35
2018-06-09T10:07:32.947Z,5.37
2018-06-09T10:12:37.580Z,4.37
2018-06-09T10:17:42.531Z,3.98
2018-06-09T10:22:47.679Z,5.00
2018-06-09T10:27:52.744Z,4.33
2018-06-09T10:32:57.560Z,6.03
2018-06-09T10:38:02.290Z,5.45
2018-06-09T10:43:07.131Z,4.97
2018-06-09T10:48:11.974Z,4.80
2018-06-09T10:53:16.904Z,3.10
2018-06-09T10:58:21.861Z,3.10
2018-06-09T11:03:26.775Z,3.55
2018-06-09T11:08:31.736Z,4.28
2018-06-09T11:13:37.420Z,3.90
2018-06-09T11:18:47.265Z,3.17
2018-06-09T11:23:53.080Z,3.22
2018-06-09T11:28:58.135Z,3.00
2018-06-09T11:34:03.214Z,3.50
2018-06-09T11:39:09.130Z,3.35
2018-06-09T11:44:14.073Z,4.05
2018-06-09T11:49:18.940Z,4.20
2018-06-09T11:54:23.590Z,3.85
2018-06-09T11:59:28.512Z,3.00
2018-06-09T12:04:33.331Z,2.80
2018-06-09T12:09:38.188Z,3.40
2018-06-09T12:14:43.121Z,2.90
2018-06-09T12:19:47.861Z,2.65
2018-06-09T12:24:52.797Z,2.83
2018-06-09T12:29:57.502Z,2.55
2018-06-09T12:35:02.155Z,3.00
2018-06-09T12:40:06.962Z,3.20
2018-06-09T12:45:11.705Z,2.65
2018-06-09T12:50:16.450Z,2.67
2018-06-09T12:55:21.386Z,2.30
2018-06-09T13:00:26.054Z,2.10
2018-06-09T13:05:30.990Z,2.02
2018-06-09T13:10:35.807Z,2.65
2018-06-09T13:15:40.657Z,2.55
2018-06-09T13:20:45.533Z,3.00
2018-06-09T13:25:50.540Z,3.20
2018-06-09T13:30:55.494Z,2.62
2018-06-09T13:36:00.218Z,2.77
2018-06-09T13:41:05.051Z,2.55
2018-06-09T13:46:09.804Z,3.10
2018-06-09T13:51:14.514Z,2.42
2018-06-09T13:56:19.420Z,2.40
2018-06-09T14:01:24.463Z,2.50
2018-06-09T14:06:30.085Z,2.55
2018-06-09T14:11:34.692Z,2.90
2018-06-09T14:16:39.424Z,2.47
2018-06-09T14:21:44.206Z,2.65
2018-06-09T14:26:49.324Z,2.58
2018-06-09T14:31:54.291Z,2.37
2018-06-09T14:36:59.300Z,2.20
2018-06-09T14:42:04.537Z,2.00
2018-06-09T14:47:09.162Z,2.45
2018-06-09T14:52:13.874Z,2.70
2018-06-09T14:57:18.673Z,2.15
2018-06-09T15:02:22.955Z,2.33
2018-06-09T15:07:27.708Z,2.22
2018-06-09T15:12:32.345Z,2.30
2018-06-09T15:17:37.070Z,2.15
2018-06-09T15:22:41.749Z,2.65
2018-06-09T15:27:46.659Z,2.40
2018-06-09T15:32:52.532Z,1.90
2018-06-09T15:37:57.856Z,2.50
2018-06-09T15:43:02.611Z,1.98
2018-06-09T15:48:07.277Z,2.08
2018-06-09T15:53:21.774Z,2.72
2018-06-09T15:58:27.544Z,2.72
2018-06-09T16:03:48.089Z,2.70
2018-06-09T16:08:59.368Z,2.20
2018-06-09T16:14:18.034Z,2.00
2018-06-09T16:19:25.285Z,1.75
2018-06-09T16:24:30.072Z,2.40
2018-06-09T16:29:35.415Z,1.92
2018-06-09T16:34:40.359Z,1.80
2018-06-09T16:39:44.939Z,3.47
2018-06-09T16:45:02.069Z,3.35
2018-06-09T16:50:08.788Z,3.58
2018-06-09T16:55:13.346Z,4.10
2018-06-09T17:00:18.137Z,4.65
2018-06-09T17:05:22.864Z,4.90
2018-06-09T17:10:28.752Z,4.83
2018-06-09T17:15:34.105Z,4.50
2018-06-09T17:20:52.394Z,4.35
2018-06-09T17:31:23.499Z,4.20
2018-06-09T17:36:29.989Z,4.40
2018-06-09T17:41:52.502Z,4.92
2018-06-09T17:47:03.733Z,4.25
2018-06-09T17:52:20.581Z,4.33
2018-06-09T17:57:37.247Z,4.12
2018-06-09T18:02:55.964Z,4.15
2018-06-09T18:08:01.910Z,4.35
2018-06-09T18:13:08.085Z,4.28
2018-06-09T18:18:12.928Z,4.83
2018-06-09T18:23:18.248Z,4.08
2018-06-09T18:28:30.089Z,4.50
2018-06-09T18:33:37.045Z,4.05
2018-06-09T18:38:46.417Z,4.30
2018-06-09T18:43:54.820Z,4.40
2018-06-09T18:49:02.344Z,4.90
2018-06-09T18:54:08.501Z,4.97
2018-06-09T18:59:13.380Z,5.12
2018-06-09T19:04:18.317Z,5.17
2018-06-09T19:09:23.237Z,5.50
2018-06-09T19:14:28.158Z,5.53
2018-06-09T19:19:32.506Z,5.92
2018-06-09T19:24:37.540Z,6.22
2018-06-09T19:29:42.617Z,6.10
2018-06-09T19:34:47.752Z,5.83
2018-06-09T19:39:52.449Z,6.22
2018-06-09T19:44:57.513Z,6.08
2018-06-09T19:50:02.578Z,6.22
2018-06-09T19:55:08.435Z,6.47
2018-06-09T20:00:13.183Z,7.42
2018-06-09T20:05:18.089Z,6.45
2018-06-09T20:10:23.512Z,6.87
2018-06-09T20:15:28.379Z,6.42
2018-06-09T20:20:33.291Z,6.65
2018-06-09T20:25:38.170Z,6.40
2018-06-09T20:30:43.335Z,6.33
2018-06-09T20:35:48.369Z,6.97
2018-06-09T20:40:55.313Z,6.58
2018-06-09T20:46:00.521Z,7.53
2018-06-09T20:51:05.378Z,6.72
2018-06-09T20:56:10.653Z,6.20
2018-06-09T21:01:15.517Z,6.70
2018-06-09T21:06:20.448Z,7.25
2018-06-09T21:11:25.455Z,6.90
2018-06-09T21:16:30.423Z,6.92
2018-06-09T21:21:35.355Z,6.97
2018-06-09T21:26:45.399Z,6.95
2018-06-09T21:31:50.083Z,6.87
2018-06-09T21:36:56.721Z,7.40
2018-06-09T21:42:07.554Z,6.67
2018-06-09T21:47:12.456Z,6.60
2018-06-09T21:52:17.083Z,6.67
2018-06-09T21:57:21.869Z,7.60
2018-06-09T22:02:26.663Z,7.25
2018-06-09T22:07:31.372Z,7.33
2018-06-09T22:12:36.253Z,7.80
2018-06-09T22:17:41.068Z,7.58
2018-06-09T22:22:45.848Z,7.80
2018-06-09T22:27:50.763Z,6.97
2018-06-09T22:32:55.569Z,7.87
2018-06-09T22:38:00.340Z,7.03
2018-06-09T22:43:04.941Z,7.80
2018-06-09T22:48:09.905Z,7.87
2018-06-09T22:53:14.969Z,7.85
2018-06-09T22:58:19.574Z,7.28
2018-06-09T23:03:24.361Z,8.13
2018-06-09T23:08:29.160Z,7.65
2018-06-09T23:13:33.880Z,7.35
2018-06-09T23:18:38.158Z,14.23
2018-06-09T23:23:43.047Z,7.40
2018-06-09T23:28:47.991Z,7.50
2018-06-09T23:33:52.836Z,7.80
2018-06-09T23:38:57.470Z,7.58
2018-06-09T23:44:02.285Z,8.33
2018-06-09T23:49:07.035Z,8.30
2018-06-09T23:54:11.989Z,7.60
2018-06-09T23:59:16.695Z,8.70
